createdAt,value
2024-01-20T15:59:43.201Z,0.70
2024-01-20T16:02:29.802Z,0.80
2024-01-20T16:05:16.367Z,0.80
2024-01-20T16:08:02.625Z,0.90
2024-01-20T16:10:49.021Z,0.90
2024-01-20T16:13:35.593Z,0.90
2024-01-20T16:16:23.910Z,0.80
2024-01-20T16:19:10.874Z,0.90
2024-01-20T16:21:57.719Z,0.80
2024-01-20T16:24:44.316Z,0.80
2024-01-20T16:27:30.854Z,0.80
2024-01-20T16:30:17.658Z,0.70
2024-01-20T16:33:06.220Z,0.80
2024-01-20T16:35:52.430Z,0.80
2024-01-20T16:38:39.075Z,0.70
2024-01-20T16:41:25.676Z,0.70
2024-01-20T16:44:12.205Z,0.80
2024-01-20T16:46:58.985Z,0.70
2024-01-20T16:49:46.950Z,0.60
2024-01-20T16:52:33.819Z,0.70
2024-01-20T16:55:20.793Z,0.60
2024-01-20T16:58:07.554Z,0.60
2024-01-20T17:00:54.101Z,0.60
2024-01-20T17:03:40.541Z,0.60
2024-01-20T17:06:29.821Z,0.60
2024-01-20T17:09:16.507Z,0.70
2024-01-20T17:12:03.341Z,0.60
2024-01-20T17:14:49.957Z,0.50
2024-01-20T17:17:36.758Z,0.50
2024-01-20T17:20:23.164Z,0.50
2024-01-20T17:23:11.468Z,0.40
2024-01-20T17:25:58.241Z,0.40
2024-01-20T17:28:45.909Z,0.30
2024-01-20T17:31:34.696Z,0.20
2024-01-20T17:34:21.488Z,0.20
2024-01-20T17:37:07.893Z,0.30
2024-01-20T17:39:55.638Z,0.30
2024-01-20T17:42:43.471Z,0.20
2024-01-20T17:45:30.288Z,0.20
2024-01-20T17:48:16.593Z,0.20
2024-01-20T17:51:03.842Z,0.20
2024-01-20T17:53:50.412Z,0.10
2024-01-20T17:56:37.864Z,0.20
2024-01-20T17:59:24.411Z,0.10
2024-01-20T18:02:10.874Z,0.10
2024-01-20T18:04:57.653Z,0.10
2024-01-20T18:07:46.639Z,0.10
2024-01-20T18:10:33.313Z,0.10
2024-01-20T18:13:20.978Z,0.00
2024-01-20T18:16:09.064Z,0.10
2024-01-20T18:18:55.750Z,0.10
2024-01-20T18:21:46.393Z,0.00
2024-01-20T18:24:33.233Z,0.00
2024-01-20T18:27:19.453Z,0.00
2024-01-20T18:30:10.433Z,0.00
2024-01-20T18:32:57.195Z,-0.10
2024-01-20T18:35:44.103Z,-0.10
2024-01-20T18:38:30.496Z,-0.10
2024-01-20T18:41:18.161Z,-0.10
2024-01-20T18:44:05.037Z,-0.20
2024-01-20T18:46:52.727Z,-0.20
2024-01-20T18:49:39.493Z,-0.20
2024-01-20T18:52:26.268Z,-0.20
2024-01-20T18:55:13.492Z,-0.20
2024-01-20T18:57:59.785Z,-0.20
2024-01-20T19:00:46.341Z,-0.30
2024-01-20T19:03:34.449Z,-0.20
2024-01-20T19:06:20.947Z,-0.20
2024-01-20T19:09:08.056Z,-0.20
2024-01-20T19:11:54.747Z,-0.10
2024-01-20T19:14:41.317Z,-0.20
2024-01-20T19:17:29.447Z,-0.20
2024-01-20T19:20:21.734Z,-0.20
2024-01-20T19:23:08.585Z,-0.30
2024-01-20T19:25:55.099Z,-0.20
2024-01-20T19:28:42.161Z,-0.40
2024-01-20T19:31:29.517Z,-0.30
2024-01-20T19:34:15.874Z,-0.40
2024-01-20T19:37:03.818Z,-0.40
2024-01-20T19:39:51.713Z,-0.50
2024-01-20T19:42:38.289Z,-0.50
2024-01-20T19:45:24.879Z,-0.50
2024-01-20T19:48:13.049Z,-0.60
2024-01-20T19:51:00.028Z,-0.50
2024-01-20T19:53:47.775Z,-0.50
2024-01-20T19:56:34.197Z,-0.50
2024-01-20T19:59:21.067Z,-0.50
2024-01-20T20:02:08.628Z,-0.60
2024-01-20T20:04:55.370Z,-0.70
2024-01-20T20:07:41.669Z,-0.70
2024-01-20T20:10:30.528Z,-0.60
2024-01-20T20:13:16.970Z,-0.80
2024-01-20T20:16:05.324Z,-0.90
2024-01-20T20:18:51.819Z,-0.70
2024-01-20T20:21:38.545Z,-0.90
2024-01-20T20:24:25.587Z,-0.90
2024-01-20T20:27:13.800Z,-0.90
2024-01-20T20:30:00.205Z,-1.00
2024-01-20T20:32:46.990Z,-1.10
2024-01-20T20:35:34.329Z,-1.10
2024-01-20T20:38:21.023Z,-1.10
2024-01-20T20:41:07.619Z,-1.10
2024-01-20T20:43:55.731Z,-1.20
2024-01-20T20:46:42.499Z,-1.20
2024-01-20T20:49:29.086Z,-1.20
2024-01-20T20:52:15.926Z,-1.30
2024-01-20T20:55:02.778Z,-1.30
2024-01-20T20:57:49.254Z,-1.30
2024-01-20T21:00:37.629Z,-1.40
2024-01-20T21:03:24.818Z,-1.30
2024-01-20T21:06:11.739Z,-1.50
2024-01-20T21:09:01.298Z,-1.40
2024-01-20T21:11:48.003Z,-1.40
2024-01-20T21:14:36.767Z,-1.40
2024-01-20T21:17:28.302Z,-1.40
2024-01-20T21:20:14.908Z,-1.40
2024-01-20T21:23:01.462Z,-1.40
2024-01-20T21:25:47.872Z,-1.40
2024-01-20T21:28:34.544Z,-1.40
2024-01-20T21:31:21.198Z,-1.40
2024-01-20T21:34:09.067Z,-1.30
2024-01-20T21:36:55.348Z,-1.40
2024-01-20T21:39:42.244Z,-1.40
2024-01-20T21:42:28.780Z,-1.30
2024-01-20T21:45:15.130Z,-1.40
2024-01-20T21:48:01.638Z,-1.40
2024-01-20T21:50:49.879Z,-1.40
2024-01-20T21:53:36.164Z,-1.40
2024-01-20T21:56:23.692Z,-1.40
2024-01-20T21:59:10.100Z,-1.40
2024-01-20T22:01:56.536Z,-1.40
2024-01-20T22:04:43.039Z,-1.40
2024-01-20T22:07:32.351Z,-1.30
2024-01-20T22:10:19.424Z,-1.30
2024-01-20T22:13:05.882Z,-1.40
2024-01-20T22:15:52.678Z,-1.40
2024-01-20T22:18:39.860Z,-1.50
2024-01-20T22:21:26.614Z,-1.50
2024-01-20T22:24:14.217Z,-1.50
2024-01-20T22:27:03.388Z,-1.60
2024-01-20T22:29:50.426Z,-1.60
2024-01-20T22:32:39.143Z,-1.60
2024-01-20T22:35:30.201Z,-1.60
2024-01-20T22:38:17.033Z,-1.60
